Time,TemperatureF,DewpointF,PressureIn,WindDirection,WindDirectionDegrees,WindSpeedMPH,WindSpeedGustMPH,Humidity,HourlyPrecipIn,Conditions,Clouds,dailyrainin,SoftwareType,DateUTC
2013-02-01 00:01:00,-12.5,-20.3,30.35,NNW,330,0.0,5.0,67,0.00,,SKC,0.00,VWS V14.01,2013-02-01 06:01:00,
2013-02-01 00:06:00,-12.8,-20.6,30.35,NW,304,4.0,5.0,67,0.00,,SKC,0.00,VWS V14.01,2013-02-01 06:06:00,
2013-02-01 00:11:00,-12.8,-20.6,30.35,NNW,344,2.0,3.0,67,0.00,,SKC,0.00,VWS V14.01,2013-02-01 06:11:00,
2013-02-01 00:16:00,-12.8,-20.9,30.35,NW,323,1.0,5.0,66,0.00,,SKC,0.00,VWS V14.01,2013-02-01 06:16:00,
2013-02-01 00:21:00,-12.8,-20.9,30.35,NW,326,1.0,2.0,66,0.00,,SKC,0.00,VWS V14.01,2013-02-01 06:21:00,
2013-02-01 00:26:00,-12.8,-20.9,30.35,NNW,337,2.0,5.0,66,0.00,,SKC,0.00,VWS V14.01,2013-02-01 06:26:00,
2013-02-01 00:31:00,-12.8,-20.9,30.36,NW,322,1.0,3.0,66,0.00,,SKC,0.00,VWS V14.01,2013-02-01 06:31:00,
2013-02-01 00:36:00,-13.0,-21.1,30.36,NW,325,3.0,4.0,66,0.00,,SKC,0.00,VWS V14.01,2013-02-01 06:36:00,
2013-02-01 00:41:00,-13.0,-21.1,30.36,NW,308,3.0,4.0,66,0.00,,SKC,0.00,VWS V14.01,2013-02-01 06:41:00,
2013-02-01 00:46:00,-13.0,-21.1,30.36,NNW,333,3.0,4.0,66,0.00,,SKC,0.00,VWS V14.01,2013-02-01 06:46:00,
2013-02-01 00:51:00,-13.3,-21.1,30.36,NW,322,1.0,2.0,67,0.00,,SKC,0.00,VWS V14.01,2013-02-01 06:51:00,
2013-02-01 00:56:00,-13.3,-21.1,30.36,NNW,329,1.0,3.0,67,0.00,,SKC,0.00,VWS V14.01,2013-02-01 06:56:00,
2013-02-01 01:00:00,-13.3,-21.1,30.36,NW,313,1.0,1.0,67,0.00,,SKC,0.00,VWS V14.01,2013-02-01 07:00:00,
2013-02-01 01:05:00,-13.5,-21.3,30.36,NNW,335,1.0,2.0,67,0.00,,SKC,0.00,VWS V14.01,2013-02-01 07:05:00,
2013-02-01 01:11:00,-13.5,-21.3,30.36,NW,319,2.0,3.0,67,0.00,,SKC,0.00,VWS V14.01,2013-02-01 07:11:00,
2013-02-01 01:16:00,-13.5,-21.6,30.36,NNW,333,1.0,3.0,66,0.00,,SKC,0.00,VWS V14.01,2013-02-01 07:16:00,
2013-02-01 01:20:00,-13.5,-21.3,30.36,NNW,333,1.0,1.0,67,0.00,,SKC,0.00,VWS V14.01,2013-02-01 07:20:00,
2013-02-01 01:25:00,-13.5,-21.3,30.36,NNW,335,1.0,2.0,67,0.00,,SKC,0.00,VWS V14.01,2013-02-01 07:25:00,
2013-02-01 01:30:00,-13.8,-21.6,30.36,NNW,328,1.0,1.0,67,0.00,,SKC,0.00,VWS V14.01,2013-02-01 07:30:00,
2013-02-01 01:35:00,-13.8,-21.6,30.36,NNW,332,0.0,1.0,67,0.00,,SKC,0.00,VWS V14.01,2013-02-01 07:35:00,
2013-02-01 01:40:00,-13.8,-21.6,30.36,NW,316,1.0,2.0,67,0.00,,SKC,0.00,VWS V14.01,2013-02-01 07:40:00,
2013-02-01 01:45:00,-13.8,-21.6,30.35,NNW,346,1.0,2.0,67,0.00,,SKC,0.00,VWS V14.01,2013-02-01 07:45:00,
2013-02-01 01:50:00,-14.0,-21.8,30.35,North,354,0.0,1.0,67,0.00,,SKC,0.00,VWS V14.01,2013-02-01 07:50:00,
2013-02-01 01:55:00,-14.0,-21.8,30.35,North,353,0.0,1.0,67,0.00,,SKC,0.00,VWS V14.01,2013-02-01 07:55:00,
2013-02-01 02:00:00,-14.0,-21.8,30.35,North,353,0.0,0.0,67,0.00,,SKC,0.00,VWS V14.01,2013-02-01 08:00:00,
2013-02-01 02:05:00,-14.0,-21.8,30.35,North,353,0.0,0.0,67,0.00,,SKC,0.00,VWS V14.01,2013-02-01 08:05:00,
2013-02-01 02:10:00,-14.0,-21.8,30.35,North,357,0.0,0.0,67,0.00,,SKC,0.00,VWS V14.01,2013-02-01 08:10:00,
2013-02-01 02:15:00,-14.3,-22.1,30.34,North,357,0.0,0.0,67,0.00,,SKC,0.00,VWS V14.01,2013-02-01 08:15:00,
2013-02-01 02:20:00,-14.3,-22.1,30.34,North,357,0.0,0.0,67,0.00,,SKC,0.00,VWS V14.01,2013-02-01 08:20:00,
2013-02-01 02:25:00,-14.6,-22.4,30.34,North,356,0.0,0.0,67,0.00,,SKC,0.00,VWS V14.01,2013-02-01 08:25:00,
2013-02-01 02:30:00,-14.6,-22.4,30.35,North,354,0.0,0.0,67,0.00,,SKC,0.00,VWS V14.01,2013-02-01 08:30:00,
2013-02-01 02:35:00,-14.6,-22.6,30.35,NW,306,0.0,1.0,66,0.00,,SKC,0.00,VWS V14.01,2013-02-01 08:35:00,
2013-02-01 02:40:00,-14.8,-22.8,30.35,NW,325,0.0,0.0,66,0.00,,SKC,0.00,VWS V14.01,2013-02-01 08:40:00,
2013-02-01 02:45:00,-15.1,-22.8,30.36,NNW,329,0.0,0.0,67,0.00,,SKC,0.00,VWS V14.01,2013-02-01 08:45:00,
2013-02-01 02:50:00,-15.1,-22.8,30.36,NNW,329,0.0,0.0,67,0.00,,SKC,0.00,VWS V14.01,2013-02-01 08:50:00,
2013-02-01 02:55:00,-15.1,-22.8,30.36,NNW,329,0.0,0.0,67,0.00,,SKC,0.00,VWS V14.01,2013-02-01 08:55:00,
2013-02-01 03:00:00,-15.1,-22.8,30.35,NNW,330,0.0,0.0,67,0.00,,SKC,0.00,VWS V14.01,2013-02-01 09:00:00,
2013-02-01 03:05:00,-15.3,-23.0,30.35,NNW,330,0.0,0.0,67,0.00,,SKC,0.00,VWS V14.01,2013-02-01 09:05:00,
2013-02-01 03:10:00,-15.3,-23.0,30.35,NNW,329,0.0,0.0,67,0.00,,SKC,0.00,VWS V14.01,2013-02-01 09:10:00,
2013-02-01 03:15:00,-15.6,-23.3,30.36,NNW,330,0.0,0.0,67,0.00,,SKC,0.00,VWS V14.01,2013-02-01 09:15:00,
2013-02-01 03:20:00,-15.6,-23.0,30.36,NNW,330,0.0,0.0,68,0.00,,SKC,0.00,VWS V14.01,2013-02-01 09:20:00,
2013-02-01 03:25:00,-15.6,-23.0,30.36,NNW,329,0.0,0.0,68,0.00,,SKC,0.00,VWS V14.01,2013-02-01 09:25:00,
2013-02-01 03:30:00,-15.8,-23.2,30.37,NNW,329,0.0,0.0,68,0.00,,SKC,0.00,VWS V14.01,2013-02-01 09:30:00,
2013-02-01 03:35:00,-15.8,-23.2,30.37,NNW,329,0.0,0.0,68,0.00,,SKC,0.00,VWS V14.01,2013-02-01 09:35:00,
2013-02-01 03:40:00,-15.8,-23.2,30.37,NNW,332,0.0,0.0,68,0.00,,SKC,0.00,VWS V14.01,2013-02-01 09:40:00,
2013-02-01 03:45:00,-15.8,-23.2,30.36,NNW,332,0.0,0.0,68,0.00,,SKC,0.00,VWS V14.01,2013-02-01 09:45:00,
2013-02-01 03:50:00,-15.8,-23.2,30.36,NNW,332,0.0,0.0,68,0.00,,SKC,0.00,VWS V14.01,2013-02-01 09:50:00,
2013-02-01 03:55:00,-15.8,-23.2,30.36,NNW,340,0.0,0.0,68,0.00,,SKC,0.00,VWS V14.01,2013-02-01 09:55:00,
2013-02-01 04:00:00,-15.8,-23.5,30.37,NNW,340,0.0,0.0,67,0.00,,SKC,0.00,VWS V14.01,2013-02-01 10:00:00,
2013-02-01 04:05:00,-15.8,-23.5,30.37,NNW,340,0.0,0.0,67,0.00,,SKC,0.00,VWS V14.01,2013-02-01 10:05:00,
2013-02-01 04:10:00,-16.1,-23.8,30.37,NNW,340,0.0,0.0,67,0.00,,SKC,0.00,VWS V14.01,2013-02-01 10:10:00,
2013-02-01 04:15:00,-16.1,-23.8,30.37,NNW,340,0.0,0.0,67,0.00,,SKC,0.00,VWS V14.01,2013-02-01 10:15:00,
2013-02-01 04:20:00,-16.4,-24.1,30.37,NNW,340,0.0,0.0,67,0.00,,SKC,0.00,VWS V14.01,2013-02-01 10:20:00,
2013-02-01 04:25:00,-16.1,-23.5,30.37,NNW,328,0.0,0.0,68,0.00,,SKC,0.00,VWS V14.01,2013-02-01 10:25:00,
2013-02-01 04:30:00,-16.1,-23.8,30.37,NNW,328,0.0,0.0,67,0.00,,SKC,0.00,VWS V14.01,2013-02-01 10:30:00,
2013-02-01 04:35:00,-16.1,-23.8,30.37,WNW,302,1.0,2.0,67,0.00,,SKC,0.00,VWS V14.01,2013-02-01 10:35:00,
2013-02-01 04:40:00,-16.1,-23.8,30.37,NW,306,0.0,0.0,67,0.00,,SKC,0.00,VWS V14.01,2013-02-01 10:40:00,
2013-02-01 04:45:00,-16.1,-23.8,30.38,NW,312,0.0,2.0,67,0.00,,SKC,0.00,VWS V14.01,2013-02-01 10:45:00,
2013-02-01 04:50:00,-16.1,-23.8,30.38,NW,318,0.0,0.0,67,0.00,,SKC,0.00,VWS V14.01,2013-02-01 10:50:00,
2013-02-01 04:55:00,-16.1,-23.8,30.38,NW,308,0.0,1.0,67,0.00,,SKC,0.00,VWS V14.01,2013-02-01 10:55:00,
2013-02-01 05:00:00,-16.1,-23.8,30.38,NW,308,1.0,1.0,67,0.00,,SKC,0.00,VWS V14.01,2013-02-01 11:00:00,
2013-02-01 05:05:00,-16.1,-23.8,30.38,NW,325,0.0,2.0,67,0.00,,SKC,0.00,VWS V14.01,2013-02-01 11:05:00,
2013-02-01 05:10:00,-16.1,-23.8,30.38,NW,325,0.0,0.0,67,0.00,,SKC,0.00,VWS V14.01,2013-02-01 11:10:00,
2013-02-01 05:15:00,-16.1,-23.8,30.38,NNW,337,0.0,1.0,67,0.00,,SKC,0.00,VWS V14.01,2013-02-01 11:15:00,
2013-02-01 05:20:00,-15.8,-23.2,30.38,NNW,333,0.0,1.0,68,0.00,,SKC,0.00,VWS V14.01,2013-02-01 11:20:00,
2013-02-01 05:25:00,-15.8,-23.5,30.38,NNW,330,0.0,3.0,67,0.00,,SKC,0.00,VWS V14.01,2013-02-01 11:25:00,
2013-02-01 05:30:00,-15.8,-23.5,30.38,NNW,328,0.0,1.0,67,0.00,,SKC,0.00,VWS V14.01,2013-02-01 11:30:00,
2013-02-01 05:35:00,-15.8,-23.5,30.38,NNW,329,1.0,2.0,67,0.00,,SKC,0.00,VWS V14.01,2013-02-01 11:35:00,
2013-02-01 05:40:00,-15.8,-23.5,30.38,NW,319,1.0,1.0,67,0.00,,SKC,0.00,VWS V14.01,2013-02-01 11:40:00,
2013-02-01 05:45:00,-15.8,-23.5,30.37,NW,320,1.0,2.0,67,0.00,,SKC,0.00,VWS V14.01,2013-02-01 11:45:00,
2013-02-01 05:50:00,-15.8,-23.5,30.37,NNW,333,1.0,1.0,67,0.00,,SKC,0.00,VWS V14.01,2013-02-01 11:50:00,
2013-02-01 05:55:00,-16.1,-23.8,30.37,NNW,333,0.0,1.0,67,0.00,,SKC,0.00,VWS V14.01,2013-02-01 11:55:00,
2013-02-01 06:00:00,-16.1,-23.8,30.37,NNW,333,0.0,0.0,67,0.00,,SKC,0.00,VWS V14.01,2013-02-01 12:00:00,
2013-02-01 06:05:00,-16.4,-23.8,30.37,NNW,333,0.0,0.0,68,0.00,,SKC,0.00,VWS V14.01,2013-02-01 12:05:00,
2013-02-01 06:10:00,-16.4,-23.8,30.37,NNW,333,0.0,0.0,68,0.00,,SKC,0.00,VWS V14.01,2013-02-01 12:10:00,
2013-02-01 06:15:00,-16.4,-23.8,30.37,NNW,333,0.0,0.0,68,0.00,,SKC,0.00,VWS V14.01,2013-02-01 12:15:00,
2013-02-01 06:20:00,-16.6,-24.0,30.37,NNW,333,0.0,0.0,68,0.00,,SKC,0.00,VWS V14.01,2013-02-01 12:20:00,
2013-02-01 06:25:00,-16.6,-24.0,30.37,NNW,333,0.0,0.0,68,0.00,,SKC,0.00,VWS V14.01,2013-02-01 12:25:00,
2013-02-01 06:30:00,-16.6,-24.0,30.37,NNW,333,0.0,0.0,68,0.00,,SKC,0.00,VWS V14.01,2013-02-01 12:30:00,
2013-02-01 06:35:00,-16.9,-24.3,30.37,NNW,333,0.0,0.0,68,0.00,,SKC,0.00,VWS V14.01,2013-02-01 12:35:00,
2013-02-01 06:40:00,-16.9,-24.3,30.37,NNW,335,0.0,0.0,68,0.00,,SKC,0.00,VWS V14.01,2013-02-01 12:40:00,
2013-02-01 06:45:00,-16.9,-24.3,30.37,NNW,335,0.0,0.0,68,0.00,,SKC,0.00,VWS V14.01,2013-02-01 12:45:00,
2013-02-01 06:50:00,-16.9,-24.3,30.37,NNW,335,0.0,0.0,68,0.00,,SKC,0.00,VWS V14.01,2013-02-01 12:50:00,
2013-02-01 06:55:00,-16.9,-24.0,30.37,NNW,335,0.0,0.0,69,0.00,,SKC,0.00,VWS V14.01,2013-02-01 12:55:00,
2013-02-01 07:00:00,-16.9,-24.0,30.36,NNW,335,0.0,0.0,69,0.00,,SKC,0.00,VWS V14.01,2013-02-01 13:00:00,
2013-02-01 07:05:00,-16.6,-23.7,30.36,NNW,335,0.0,0.0,69,0.00,,SKC,0.00,VWS V14.01,2013-02-01 13:05:00,
2013-02-01 07:10:00,-16.9,-24.0,30.36,NNW,335,0.0,0.0,69,0.00,,SKC,0.00,VWS V14.01,2013-02-01 13:10:00,
2013-02-01 07:15:00,-16.9,-24.0,30.37,NNW,335,0.0,0.0,69,0.00,,SKC,0.00,VWS V14.01,2013-02-01 13:15:00,
2013-02-01 07:20:00,-16.9,-24.0,30.37,NNW,335,0.0,0.0,69,0.00,,SKC,0.00,VWS V14.01,2013-02-01 13:20:00,
2013-02-01 07:25:00,-16.9,-24.0,30.37,NNW,335,0.0,0.0,69,0.00,,SKC,0.00,VWS V14.01,2013-02-01 13:25:00,
2013-02-01 07:30:00,-16.9,-24.0,30.36,NNW,335,0.0,0.0,69,0.00,,SKC,0.00,VWS V14.01,2013-02-01 13:30:00,
2013-02-01 07:35:00,-16.9,-24.0,30.36,NNW,335,0.0,0.0,69,0.00,,SKC,0.00,VWS V14.01,2013-02-01 13:35:00,
2013-02-01 07:40:00,-16.9,-24.0,30.36,NNW,335,0.0,0.0,69,0.00,,SKC,0.00,VWS V14.01,2013-02-01 13:40:00,
2013-02-01 07:45:00,-17.2,-24.6,30.37,NNW,335,0.0,0.0,68,0.00,,SKC,0.00,VWS V14.01,2013-02-01 13:45:00,
2013-02-01 07:50:00,-17.2,-24.3,30.37,NNW,335,0.0,0.0,69,0.00,,SKC,0.00,VWS V14.01,2013-02-01 13:50:00,
2013-02-01 07:55:00,-17.2,-24.6,30.37,NNW,335,0.0,0.0,68,0.00,,SKC,0.00,VWS V14.01,2013-02-01 13:55:00,
2013-02-01 08:00:00,-17.2,-24.6,30.37,NNW,335,0.0,0.0,68,0.00,,SKC,0.00,VWS V14.01,2013-02-01 14:00:00,
2013-02-01 08:05:00,-16.9,-24.0,30.37,NNW,335,0.0,0.0,69,0.00,,SKC,0.00,VWS V14.01,2013-02-01 14:05:00,
2013-02-01 08:10:00,-16.6,-24.0,30.37,NNW,335,0.0,0.0,68,0.00,,SKC,0.00,VWS V14.01,2013-02-01 14:10:00,
2013-02-01 08:15:00,-16.4,-23.5,30.36,NNW,335,0.0,0.0,69,0.00,,SKC,0.00,VWS V14.01,2013-02-01 14:15:00,
2013-02-01 08:20:00,-15.8,-23.2,30.36,NNW,335,0.0,0.0,68,0.00,,SKC,0.00,VWS V14.01,2013-02-01 14:20:00,
2013-02-01 08:25:00,-15.6,-23.0,30.36,NNW,335,0.0,0.0,68,0.00,,SKC,0.00,VWS V14.01,2013-02-01 14:25:00,
2013-02-01 08:30:00,-15.1,-22.5,30.35,NNW,335,0.0,0.0,68,0.00,,SKC,0.00,VWS V14.01,2013-02-01 14:30:00,
2013-02-01 08:35:00,-14.6,-22.1,30.35,NNW,335,0.0,0.0,68,0.00,,SKC,0.00,VWS V14.01,2013-02-01 14:35:00,
2013-02-01 08:40:00,-14.3,-22.4,30.35,NNW,335,0.0,0.0,66,0.00,,SKC,0.00,VWS V14.01,2013-02-01 14:40:00,
2013-02-01 08:45:00,-14.3,-22.4,30.35,NNW,335,0.0,0.0,66,0.00,,SKC,0.00,VWS V14.01,2013-02-01 14:45:00,
2013-02-01 08:50:00,-14.3,-22.4,30.35,NNW,335,0.0,0.0,66,0.00,,SKC,0.00,VWS V14.01,2013-02-01 14:50:00,
2013-02-01 08:55:00,-14.3,-22.4,30.35,NNW,335,0.0,0.0,66,0.00,,SKC,0.00,VWS V14.01,2013-02-01 14:55:00,
2013-02-01 09:00:00,-14.3,-22.4,30.34,NNW,335,0.0,0.0,66,0.00,,SKC,0.00,VWS V14.01,2013-02-01 15:00:00,
2013-02-01 09:05:00,-14.0,-22.4,30.34,NNW,335,0.0,0.0,65,0.00,,SKC,0.00,VWS V14.01,2013-02-01 15:05:00,
2013-02-01 09:10:00,-14.0,-22.4,30.34,NNW,335,0.0,0.0,65,0.00,,SKC,0.00,VWS V14.01,2013-02-01 15:10:00,
2013-02-01 09:15:00,-13.8,-22.2,30.33,NNW,335,0.0,0.0,65,0.00,,SKC,0.00,VWS V14.01,2013-02-01 15:15:00,
2013-02-01 09:20:00,-13.8,-22.2,30.33,NNW,335,1.0,1.0,65,0.00,,SKC,0.00,VWS V14.01,2013-02-01 15:20:00,
2013-02-01 09:25:00,-13.3,-21.7,30.33,SW,236,0.0,1.0,65,0.00,,SKC,0.00,VWS V14.01,2013-02-01 15:25:00,
2013-02-01 09:30:00,-13.0,-21.7,30.33,SW,234,0.0,1.0,64,0.00,,SKC,0.00,VWS V14.01,2013-02-01 15:30:00,
2013-02-01 09:35:00,-12.8,-21.5,30.33,SW,234,0.0,0.0,64,0.00,,SKC,0.00,VWS V14.01,2013-02-01 15:35:00,
2013-02-01 09:40:00,-13.0,-22.0,30.33,SW,236,0.0,0.0,63,0.00,,SKC,0.00,VWS V14.01,2013-02-01 15:40:00,
2013-02-01 09:45:00,-12.8,-21.8,30.33,SW,236,0.0,0.0,63,0.00,,SKC,0.00,VWS V14.01,2013-02-01 15:45:00,
2013-02-01 09:50:00,-12.2,-21.2,30.33,SW,236,0.0,0.0,63,0.00,,SKC,0.00,VWS V14.01,2013-02-01 15:50:00,
2013-02-01 09:55:00,-12.0,-21.3,30.33,SW,236,0.0,0.0,62,0.00,,SKC,0.00,VWS V14.01,2013-02-01 15:55:00,
2013-02-01 10:00:00,-11.7,-21.4,30.32,SW,236,0.0,0.0,61,0.00,,SKC,0.00,VWS V14.01,2013-02-01 16:00:00,
2013-02-01 10:05:00,-11.5,-21.2,30.32,SW,236,0.0,0.0,61,0.00,,SKC,0.00,VWS V14.01,2013-02-01 16:05:00,
2013-02-01 10:10:00,-11.2,-21.2,30.32,SW,236,0.0,0.0,60,0.00,,SKC,0.00,VWS V14.01,2013-02-01 16:10:00,
2013-02-01 10:15:00,-11.0,-21.3,30.32,SW,236,0.0,0.0,59,0.00,,SKC,0.00,VWS V14.01,2013-02-01 16:15:00,
2013-02-01 10:20:00,-11.0,-21.3,30.32,SW,236,0.0,0.0,59,0.00,,SKC,0.00,VWS V14.01,2013-02-01 16:20:00,
2013-02-01 10:25:00,-11.0,-21.0,30.32,WSW,246,0.0,0.0,60,0.00,,SKC,0.00,VWS V14.01,2013-02-01 16:25:00,
2013-02-01 10:30:00,-10.7,-20.7,30.32,WSW,248,0.0,0.0,60,0.00,,SKC,0.00,VWS V14.01,2013-02-01 16:30:00,
2013-02-01 10:35:00,-10.7,-20.7,30.32,West,267,1.0,2.0,60,0.00,,SKC,0.00,VWS V14.01,2013-02-01 16:35:00,
2013-02-01 10:40:00,-10.5,-20.9,30.32,West,270,1.0,2.0,59,0.00,,SKC,0.00,VWS V14.01,2013-02-01 16:40:00,
2013-02-01 10:45:00,-10.0,-20.1,30.32,WSW,248,2.0,2.0,60,0.00,,SKC,0.00,VWS V14.01,2013-02-01 16:45:00,
2013-02-01 10:50:00,-9.6,-19.7,30.32,WSW,237,1.0,2.0,60,0.00,,SKC,0.00,VWS V14.01,2013-02-01 16:50:00,
2013-02-01 10:55:00,-9.6,-20.3,30.32,WSW,248,1.0,3.0,58,0.00,,SKC,0.00,VWS V14.01,2013-02-01 16:55:00,
2013-02-01 11:00:00,-9.3,-20.0,30.32,West,261,0.0,3.0,58,0.00,,SKC,0.00,VWS V14.01,2013-02-01 17:00:00,
2013-02-01 11:05:00,-9.1,-19.9,30.32,WSW,257,2.0,3.0,58,0.00,,SKC,0.00,VWS V14.01,2013-02-01 17:05:00,
2013-02-01 11:10:00,-9.1,-19.9,30.32,WSW,247,0.0,3.0,58,0.00,,SKC,0.00,VWS V14.01,2013-02-01 17:10:00,
2013-02-01 11:15:00,-8.6,-19.1,30.33,West,268,1.0,2.0,59,0.00,,SKC,0.00,VWS V14.01,2013-02-01 17:15:00,
2013-02-01 11:20:00,-8.6,-19.1,30.33,WSW,244,2.0,3.0,59,0.00,,SKC,0.00,VWS V14.01,2013-02-01 17:20:00,
2013-02-01 11:25:00,-8.4,-19.2,30.33,SW,236,2.0,3.0,58,0.00,,SKC,0.00,VWS V14.01,2013-02-01 17:25:00,
2013-02-01 11:30:00,-7.9,-18.4,30.32,SW,227,1.0,3.0,59,0.00,,SKC,0.00,VWS V14.01,2013-02-01 17:30:00,
2013-02-01 11:35:00,-7.7,-18.2,30.32,SW,220,1.0,3.0,59,0.00,,SKC,0.00,VWS V14.01,2013-02-01 17:35:00,
2013-02-01 11:40:00,-7.9,-18.7,30.32,SW,224,2.0,4.0,58,0.00,,SKC,0.00,VWS V14.01,2013-02-01 17:40:00,
2013-02-01 11:45:00,-7.7,-18.2,30.30,SSW,213,1.0,2.0,59,0.00,,SKC,0.00,VWS V14.01,2013-02-01 17:45:00,
2013-02-01 11:50:00,-7.7,-17.9,30.30,WSW,237,1.0,3.0,60,0.00,,SKC,0.00,VWS V14.01,2013-02-01 17:50:00,
2013-02-01 11:55:00,-7.5,-17.7,30.30,WSW,237,2.0,3.0,60,0.00,,SKC,0.00,VWS V14.01,2013-02-01 17:55:00,
2013-02-01 12:00:00,-7.0,-17.2,30.30,SW,229,2.0,5.0,60,0.00,,SKC,0.00,VWS V14.01,2013-02-01 18:00:00,
2013-02-01 12:05:00,-6.5,-16.4,30.30,SSW,213,3.0,4.0,61,0.00,,SKC,0.00,VWS V14.01,2013-02-01 18:05:00,
2013-02-01 12:10:00,-6.3,-16.2,30.30,SSW,208,3.0,5.0,61,0.00,,SKC,0.00,VWS V14.01,2013-02-01 18:10:00,
2013-02-01 12:14:00,-6.3,-16.2,30.28,WSW,240,3.0,8.0,61,0.00,,SKC,0.00,VWS V14.01,2013-02-01 18:14:00,
2013-02-01 12:19:00,-6.5,-16.7,30.28,SW,222,3.0,8.0,60,0.00,,SKC,0.00,VWS V14.01,2013-02-01 18:19:00,
2013-02-01 12:24:00,-6.5,-17.1,30.28,SW,230,1.0,3.0,59,0.00,,SKC,0.00,VWS V14.01,2013-02-01 18:24:00,
2013-02-01 12:29:00,-6.3,-16.5,30.27,SSW,198,1.0,6.0,60,0.00,,SKC,0.00,VWS V14.01,2013-02-01 18:29:00,
2013-02-01 12:34:00,-6.3,-16.5,30.27,SW,226,3.0,6.0,60,0.00,,SKC,0.00,VWS V14.01,2013-02-01 18:34:00,
2013-02-01 12:39:00,-6.1,-16.4,30.27,South,186,2.0,6.0,60,0.00,,SKC,0.00,VWS V14.01,2013-02-01 18:39:00,
2013-02-01 12:44:00,-5.9,-16.5,30.26,SW,217,2.0,6.0,59,0.00,,SKC,0.00,VWS V14.01,2013-02-01 18:44:00,
2013-02-01 12:49:00,-5.6,-15.9,30.26,SW,219,3.0,6.0,60,0.00,,SKC,0.00,VWS V14.01,2013-02-01 18:49:00,
2013-02-01 12:54:00,-5.6,-16.2,30.26,SSW,198,1.0,5.0,59,0.00,,SKC,0.00,VWS V14.01,2013-02-01 18:54:00,
2013-02-01 12:59:00,-5.4,-15.7,30.25,SW,219,2.0,6.0,60,0.00,,SKC,0.00,VWS V14.01,2013-02-01 18:59:00,
2013-02-01 13:04:00,-5.4,-16.0,30.25,SSW,205,3.0,6.0,59,0.00,,SKC,0.00,VWS V14.01,2013-02-01 19:04:00,
2013-02-01 13:09:00,-5.4,-16.0,30.25,SSW,213,3.0,6.0,59,0.00,,SKC,0.00,VWS V14.01,2013-02-01 19:09:00,
2013-02-01 13:14:00,-5.0,-15.0,30.24,SW,215,2.0,5.0,61,0.00,,SKC,0.00,VWS V14.01,2013-02-01 19:14:00,
2013-02-01 13:19:00,-4.8,-14.8,30.24,SSW,195,2.0,5.0,61,0.00,,SKC,0.00,VWS V14.01,2013-02-01 19:19:00,
2013-02-01 13:24:00,-4.6,-14.3,30.24,SSW,198,5.0,6.0,62,0.00,,SKC,0.00,VWS V14.01,2013-02-01 19:24:00,
2013-02-01 13:29:00,-4.6,-14.9,30.24,SSW,192,3.0,6.0,60,0.00,,SKC,0.00,VWS V14.01,2013-02-01 19:29:00,
2013-02-01 13:34:00,-4.6,-15.3,30.24,SSW,202,3.0,6.0,59,0.00,,SKC,0.00,VWS V14.01,2013-02-01 19:34:00,
2013-02-01 13:39:00,-4.1,-14.5,30.24,WSW,239,3.0,7.0,60,0.00,,SKC,0.00,VWS V14.01,2013-02-01 19:39:00,
2013-02-01 13:44:00,-3.7,-14.1,30.24,WSW,239,2.0,5.0,60,0.00,,SKC,0.00,VWS V14.01,2013-02-01 19:44:00,
2013-02-01 13:49:00,-3.9,-13.9,30.24,SW,229,4.0,8.0,61,0.00,,SKC,0.00,VWS V14.01,2013-02-01 19:49:00,
2013-02-01 13:54:00,-3.9,-13.3,30.24,WSW,239,3.0,6.0,63,0.00,,SKC,0.00,VWS V14.01,2013-02-01 19:54:00,
2013-02-01 13:59:00,-3.9,-13.9,30.23,SW,223,2.0,6.0,61,0.00,,SKC,0.00,VWS V14.01,2013-02-01 19:59:00,
2013-02-01 14:04:00,-3.9,-13.6,30.23,SSW,192,3.0,5.0,62,0.00,,SKC,0.00,VWS V14.01,2013-02-01 20:04:00,
2013-02-01 14:09:00,-3.9,-13.3,30.23,SSW,209,3.0,6.0,63,0.00,,SKC,0.00,VWS V14.01,2013-02-01 20:09:00,
2013-02-01 14:14:00,-3.9,-13.6,30.22,SSW,195,3.0,5.0,62,0.00,,SKC,0.00,VWS V14.01,2013-02-01 20:14:00,
2013-02-01 14:19:00,-3.7,-12.8,30.22,SW,219,2.0,5.0,64,0.00,,SKC,0.00,VWS V14.01,2013-02-01 20:19:00,
2013-02-01 14:24:00,-3.5,-12.9,30.22,SSW,202,2.0,5.0,63,0.00,,SKC,0.00,VWS V14.01,2013-02-01 20:24:00,
2013-02-01 14:29:00,-3.5,-12.9,30.21,SSW,209,3.0,6.0,63,0.00,,SKC,0.00,VWS V14.01,2013-02-01 20:29:00,
2013-02-01 14:34:00,-3.3,-12.4,30.21,South,179,2.0,5.0,64,0.00,,SKC,0.00,VWS V14.01,2013-02-01 20:34:00,
2013-02-01 14:39:00,-3.3,-12.4,30.21,South,185,2.0,6.0,64,0.00,,SKC,0.00,VWS V14.01,2013-02-01 20:39:00,
2013-02-01 14:44:00,-3.1,-11.9,30.20,South,172,1.0,4.0,65,0.00,,SKC,0.00,VWS V14.01,2013-02-01 20:44:00,
2013-02-01 14:49:00,-2.8,-11.6,30.20,SSE,167,2.0,6.0,65,0.00,,SKC,0.00,VWS V14.01,2013-02-01 20:49:00,
2013-02-01 14:54:00,-2.8,-11.6,30.20,SSW,196,3.0,5.0,65,0.00,,SKC,0.00,VWS V14.01,2013-02-01 20:54:00,
2013-02-01 14:59:00,-2.8,-11.3,30.20,South,182,2.0,5.0,66,0.00,,SKC,0.00,VWS V14.01,2013-02-01 20:59:00,
2013-02-01 15:04:00,-2.4,-10.6,30.20,SSE,167,1.0,3.0,67,0.00,,SKC,0.00,VWS V14.01,2013-02-01 21:04:00,
2013-02-01 15:09:00,-2.4,-11.2,30.20,SSE,167,3.0,3.0,65,0.00,,SKC,0.00,VWS V14.01,2013-02-01 21:09:00,
2013-02-01 15:14:00,-2.6,-11.4,30.20,South,186,2.0,3.0,65,0.00,,SKC,0.00,VWS V14.01,2013-02-01 21:14:00,
2013-02-01 15:19:00,-2.4,-10.9,30.20,SSW,193,3.0,3.0,66,0.00,,SKC,0.00,VWS V14.01,2013-02-01 21:19:00,
2013-02-01 15:24:00,-2.6,-10.8,30.20,SSE,158,2.0,4.0,67,0.00,,SKC,0.00,VWS V14.01,2013-02-01 21:24:00,
2013-02-01 15:29:00,-2.4,-10.6,30.19,SSE,148,2.0,4.0,67,0.00,,SKC,0.00,VWS V14.01,2013-02-01 21:29:00,
2013-02-01 15:34:00,-2.2,-10.4,30.19,South,169,3.0,3.0,67,0.00,,SKC,0.00,VWS V14.01,2013-02-01 21:34:00,
2013-02-01 15:39:00,-2.2,-10.4,30.19,South,171,2.0,3.0,67,0.00,,SKC,0.00,VWS V14.01,2013-02-01 21:39:00,
2013-02-01 15:44:00,-2.2,-9.9,30.18,South,174,2.0,3.0,69,0.00,,SKC,0.00,VWS V14.01,2013-02-01 21:44:00,
2013-02-01 15:49:00,-2.2,-9.9,30.18,South,169,2.0,4.0,69,0.00,,SKC,0.00,VWS V14.01,2013-02-01 21:49:00,
2013-02-01 15:54:00,-2.2,-9.9,30.18,SSE,158,2.0,5.0,69,0.00,,SKC,0.00,VWS V14.01,2013-02-01 21:54:00,
2013-02-01 15:59:00,-2.0,-9.4,30.18,South,172,2.0,5.0,70,0.00,,SKC,0.00,VWS V14.01,2013-02-01 21:59:00,
2013-02-01 16:04:00,-2.2,-9.6,30.18,SSW,198,3.0,5.0,70,0.00,,SKC,0.00,VWS V14.01,2013-02-01 22:04:00,
2013-02-01 16:09:00,-2.0,-9.1,30.18,SSW,193,2.0,5.0,71,0.00,,SKC,0.00,VWS V14.01,2013-02-01 22:09:00,
2013-02-01 16:14:00,-2.0,-9.1,30.17,South,171,2.0,3.0,71,0.00,,SKC,0.00,VWS V14.01,2013-02-01 22:14:00,
2013-02-01 16:19:00,-2.0,-9.1,30.17,SSE,168,3.0,4.0,71,0.00,,SKC,0.00,VWS V14.01,2013-02-01 22:19:00,
2013-02-01 16:24:00,-2.0,-9.1,30.17,SSE,162,1.0,5.0,71,0.00,,SKC,0.00,VWS V14.01,2013-02-01 22:24:00,
2013-02-01 16:29:00,-1.8,-8.6,30.17,SSE,157,2.0,5.0,72,0.00,,SKC,0.00,VWS V14.01,2013-02-01 22:29:00,
2013-02-01 16:34:00,-1.8,-8.6,30.17,South,174,1.0,3.0,72,0.00,,SKC,0.00,VWS V14.01,2013-02-01 22:34:00,
2013-02-01 16:39:00,-1.8,-8.3,30.17,SSE,148,2.0,3.0,73,0.00,,SKC,0.00,VWS V14.01,2013-02-01 22:39:00,
2013-02-01 16:44:00,-1.8,-8.1,30.16,SSE,158,3.0,3.0,74,0.00,,SKC,0.00,VWS V14.01,2013-02-01 22:44:00,
2013-02-01 16:49:00,-1.8,-8.1,30.16,SE,145,1.0,3.0,74,0.00,,SKC,0.00,VWS V14.01,2013-02-01 22:49:00,
2013-02-01 16:54:00,-1.8,-8.1,30.16,SSE,167,1.0,3.0,74,0.00,,SKC,0.00,VWS V14.01,2013-02-01 22:54:00,
2013-02-01 16:59:00,-1.8,-7.8,30.16,South,178,3.0,5.0,75,0.00,,SKC,0.00,VWS V14.01,2013-02-01 22:59:00,
2013-02-01 17:04:00,-1.8,-7.8,30.16,South,186,2.0,3.0,75,0.00,,SKC,0.00,VWS V14.01,2013-02-01 23:04:00,
2013-02-01 17:09:00,-1.8,-7.8,30.16,South,182,2.0,3.0,75,0.00,,SKC,0.00,VWS V14.01,2013-02-01 23:09:00,
2013-02-01 17:14:00,-1.8,-7.8,30.17,SSE,162,2.0,3.0,75,0.00,,SKC,0.00,VWS V14.01,2013-02-01 23:14:00,
2013-02-01 17:19:00,-1.8,-7.5,30.17,SSE,155,1.0,3.0,76,0.00,,SKC,0.00,VWS V14.01,2013-02-01 23:19:00,
2013-02-01 17:24:00,-1.8,-7.5,30.17,SSE,167,1.0,3.0,76,0.00,,SKC,0.00,VWS V14.01,2013-02-01 23:24:00,
2013-02-01 17:29:00,-1.8,-7.2,30.15,SSE,162,3.0,3.0,77,0.00,,SKC,0.00,VWS V14.01,2013-02-01 23:29:00,
2013-02-01 17:34:00,-1.8,-7.2,30.15,SSE,167,2.0,3.0,77,0.00,,SKC,0.00,VWS V14.01,2013-02-01 23:34:00,
2013-02-01 17:39:00,-1.8,-7.2,30.15,South,175,1.0,3.0,77,0.00,,SKC,0.00,VWS V14.01,2013-02-01 23:39:00,
2013-02-01 17:44:00,-1.6,-7.0,30.15,South,181,2.0,3.0,77,0.00,,SKC,0.00,VWS V14.01,2013-02-01 23:44:00,
2013-02-01 17:49:00,-1.6,-6.8,30.15,SSE,168,3.0,3.0,78,0.00,,SKC,0.00,VWS V14.01,2013-02-01 23:49:00,
2013-02-01 17:54:00,-1.6,-7.0,30.15,SSE,154,2.0,5.0,77,0.00,,SKC,0.00,VWS V14.01,2013-02-01 23:54:00,
2013-02-01 17:59:00,-1.6,-6.8,30.15,SSE,150,2.0,5.0,78,0.00,,SKC,0.00,VWS V14.01,2013-02-01 23:59:00,
2013-02-01 18:04:00,-1.6,-7.0,30.15,SE,124,1.0,3.0,77,0.00,,SKC,0.00,VWS V14.01,2013-02-02 00:04:00,
2013-02-01 18:09:00,-1.4,-6.6,30.15,SE,140,1.0,3.0,78,0.00,,SKC,0.00,VWS V14.01,2013-02-02 00:09:00,
2013-02-01 18:14:00,-1.4,-6.6,30.15,SE,140,1.0,1.0,78,0.00,,SKC,0.00,VWS V14.01,2013-02-02 00:14:00,
2013-02-01 18:19:00,-1.4,-6.6,30.15,ESE,119,0.0,2.0,78,0.00,,SKC,0.00,VWS V14.01,2013-02-02 00:19:00,
2013-02-01 18:24:00,-1.4,-6.8,30.15,East,99,1.0,2.0,77,0.00,,SKC,0.00,VWS V14.01,2013-02-02 00:24:00,
2013-02-01 18:29:00,-1.4,-6.6,30.15,ESE,106,1.0,2.0,78,0.00,,SKC,0.00,VWS V14.01,2013-02-02 00:29:00,
2013-02-01 18:34:00,-1.4,-6.6,30.15,ESE,113,0.0,1.0,78,0.00,,SKC,0.00,VWS V14.01,2013-02-02 00:34:00,
2013-02-01 18:39:00,-1.4,-6.6,30.15,SE,141,1.0,3.0,78,0.00,,SKC,0.00,VWS V14.01,2013-02-02 00:39:00,
2013-02-01 18:44:00,-1.4,-6.6,30.15,East,100,1.0,2.0,78,0.00,,SKC,0.00,VWS V14.01,2013-02-02 00:44:00,
2013-02-01 18:49:00,-1.4,-6.6,30.15,East,95,0.0,2.0,78,0.00,,SKC,0.00,VWS V14.01,2013-02-02 00:49:00,
2013-02-01 18:54:00,-1.4,-6.6,30.15,East,96,0.0,0.0,78,0.00,,SKC,0.00,VWS V14.01,2013-02-02 00:54:00,
2013-02-01 18:59:00,-1.2,-6.4,30.15,East,97,0.0,0.0,78,0.00,,SKC,0.00,VWS V14.01,2013-02-02 00:59:00,
2013-02-01 19:04:00,-1.2,-6.4,30.16,East,97,0.0,0.0,78,0.00,,SKC,0.00,VWS V14.01,2013-02-02 01:04:00,
2013-02-01 19:09:00,-1.2,-6.4,30.16,East,96,0.0,0.0,78,0.00,,SKC,0.00,VWS V14.01,2013-02-02 01:09:00,
2013-02-01 19:14:00,-1.2,-6.4,30.16,East,97,0.0,0.0,78,0.00,,SKC,0.00,VWS V14.01,2013-02-02 01:14:00,
2013-02-01 19:19:00,-1.2,-6.4,30.16,East,99,0.0,0.0,78,0.00,,SKC,0.00,VWS V14.01,2013-02-02 01:19:00,
2013-02-01 19:24:00,-1.2,-6.4,30.16,East,92,0.0,1.0,78,0.00,,SKC,0.00,VWS V14.01,2013-02-02 01:24:00,
2013-02-01 19:29:00,-1.2,-6.4,30.16,East,90,1.0,1.0,78,0.00,,SKC,0.00,VWS V14.01,2013-02-02 01:29:00,
2013-02-01 19:34:00,-1.2,-6.4,30.15,East,99,0.0,2.0,78,0.00,,SKC,0.00,VWS V14.01,2013-02-02 01:34:00,
2013-02-01 19:39:00,-1.4,-6.6,30.15,ENE,78,1.0,2.0,78,0.00,,SKC,0.00,VWS V14.01,2013-02-02 01:39:00,
2013-02-01 19:44:00,-1.4,-6.6,30.15,East,90,0.0,2.0,78,0.00,,SKC,0.00,VWS V14.01,2013-02-02 01:44:00,
2013-02-01 19:49:00,-1.4,-6.6,30.15,East,92,1.0,2.0,78,0.00,,SKC,0.00,VWS V14.01,2013-02-02 01:49:00,
2013-02-01 19:54:00,-1.4,-6.6,30.15,East,99,1.0,1.0,78,0.00,,SKC,0.00,VWS V14.01,2013-02-02 01:54:00,
2013-02-01 19:59:00,-1.4,-6.6,30.15,East,97,0.0,3.0,78,0.00,,SKC,0.00,VWS V14.01,2013-02-02 01:59:00,
2013-02-01 20:04:00,-1.4,-6.6,30.14,East,99,0.0,1.0,78,0.00,,SKC,0.00,VWS V14.01,2013-02-02 02:04:00,
2013-02-01 20:09:00,-1.4,-6.6,30.14,East,100,1.0,2.0,78,0.00,,SKC,0.00,VWS V14.01,2013-02-02 02:09:00,
2013-02-01 20:14:00,-1.4,-6.6,30.14,East,100,0.0,2.0,78,0.00,,SKC,0.00,VWS V14.01,2013-02-02 02:14:00,
2013-02-01 20:19:00,-1.4,-6.6,30.13,East,82,1.0,2.0,78,0.00,,SKC,0.00,VWS V14.01,2013-02-02 02:19:00,
2013-02-01 20:24:00,-1.4,-6.6,30.13,East,96,1.0,2.0,78,0.00,,SKC,0.00,VWS V14.01,2013-02-02 02:24:00,
2013-02-01 20:29:00,-1.4,-6.6,30.13,East,88,0.0,2.0,78,0.00,,SKC,0.00,VWS V14.01,2013-02-02 02:29:00,
2013-02-01 20:34:00,-1.4,-6.6,30.13,East,96,0.0,3.0,78,0.00,,SKC,0.00,VWS V14.01,2013-02-02 02:34:00,
2013-02-01 20:39:00,-1.4,-6.6,30.13,East,99,1.0,3.0,78,0.00,,SKC,0.00,VWS V14.01,2013-02-02 02:39:00,
2013-02-01 20:44:00,-1.6,-6.8,30.13,East,90,0.0,2.0,78,0.00,,SKC,0.00,VWS V14.01,2013-02-02 02:44:00,
2013-02-01 20:49:00,-1.6,-6.8,30.13,East,92,2.0,3.0,78,0.00,,SKC,0.00,VWS V14.01,2013-02-02 02:49:00,
2013-02-01 20:54:00,-1.6,-6.8,30.13,ENE,73,0.0,2.0,78,0.00,,SKC,0.00,VWS V14.01,2013-02-02 02:54:00,
2013-02-01 20:59:00,-1.6,-6.8,30.13,ESE,102,0.0,2.0,78,0.00,,SKC,0.00,VWS V14.01,2013-02-02 02:59:00,
2013-02-01 21:04:00,-1.6,-6.8,30.13,ESE,102,1.0,1.0,78,0.00,,SKC,0.00,VWS V14.01,2013-02-02 03:04:00,
2013-02-01 21:09:00,-1.6,-6.8,30.13,East,89,1.0,1.0,78,0.00,,SKC,0.00,VWS V14.01,2013-02-02 03:09:00,
2013-02-01 21:14:00,-1.6,-6.8,30.13,East,99,0.0,2.0,78,0.00,,SKC,0.00,VWS V14.01,2013-02-02 03:14:00,
2013-02-01 21:19:00,-1.6,-6.8,30.13,East,96,0.0,2.0,78,0.00,,SKC,0.00,VWS V14.01,2013-02-02 03:19:00,
2013-02-01 21:24:00,-1.6,-6.8,30.13,East,90,0.0,2.0,78,0.00,,SKC,0.00,VWS V14.01,2013-02-02 03:24:00,
2013-02-01 21:29:00,-1.6,-6.8,30.13,East,92,0.0,2.0,78,0.00,,SKC,0.00,VWS V14.01,2013-02-02 03:29:00,
2013-02-01 21:34:00,-1.6,-6.8,30.13,NE,55,0.0,2.0,78,0.00,,SKC,0.00,VWS V14.01,2013-02-02 03:34:00,
2013-02-01 21:39:00,-1.4,-6.6,30.13,East,92,0.0,2.0,78,0.00,,SKC,0.00,VWS V14.01,2013-02-02 03:39:00,
2013-02-01 21:44:00,-1.4,-6.3,30.13,East,88,0.0,1.0,79,0.00,,SKC,0.00,VWS V14.01,2013-02-02 03:44:00,
2013-02-01 21:49:00,-1.4,-6.3,30.13,NE,34,0.0,3.0,79,0.00,,SKC,0.00,VWS V14.01,2013-02-02 03:49:00,
2013-02-01 21:54:00,-1.4,-6.6,30.13,NE,56,0.0,1.0,78,0.00,,SKC,0.00,VWS V14.01,2013-02-02 03:54:00,
2013-02-01 21:59:00,-1.6,-6.5,30.13,East,86,0.0,2.0,79,0.00,,SKC,0.00,VWS V14.01,2013-02-02 03:59:00,
2013-02-01 22:04:00,-1.6,-6.5,30.13,ENE,62,0.0,2.0,79,0.00,,SKC,0.00,VWS V14.01,2013-02-02 04:04:00,
2013-02-01 22:09:00,-1.6,-6.5,30.13,NE,51,1.0,2.0,79,0.00,,SKC,0.00,VWS V14.01,2013-02-02 04:09:00,
2013-02-01 22:13:00,-1.6,-6.5,30.13,East,90,1.0,1.0,79,0.00,,SKC,0.00,VWS V14.01,2013-02-02 04:13:00,
2013-02-01 22:18:00,-1.6,-6.5,30.12,NE,37,0.0,3.0,79,0.00,,SKC,0.00,VWS V14.01,2013-02-02 04:18:00,
2013-02-01 22:23:00,-1.6,-6.5,30.12,ENE,58,0.0,2.0,79,0.00,,SKC,0.00,VWS V14.01,2013-02-02 04:23:00,
2013-02-01 22:28:00,-1.6,-6.5,30.12,ENE,66,1.0,2.0,79,0.00,,SKC,0.00,VWS V14.01,2013-02-02 04:28:00,
2013-02-01 22:33:00,-1.6,-6.5,30.12,NE,51,0.0,5.0,79,0.00,,SKC,0.00,VWS V14.01,2013-02-02 04:33:00,
2013-02-01 22:38:00,-1.6,-6.5,30.12,NE,56,1.0,5.0,79,0.00,,SKC,0.00,VWS V14.01,2013-02-02 04:38:00,
2013-02-01 22:43:00,-1.6,-6.5,30.12,East,88,2.0,2.0,79,0.00,,SKC,0.00,VWS V14.01,2013-02-02 04:43:00,
2013-02-01 22:48:00,-1.6,-6.5,30.12,ENE,76,0.0,2.0,79,0.00,,SKC,0.00,VWS V14.01,2013-02-02 04:48:00,
2013-02-01 22:53:00,-1.6,-6.5,30.12,ENE,64,0.0,2.0,79,0.00,,SKC,0.00,VWS V14.01,2013-02-02 04:53:00,
2013-02-01 22:58:00,-1.6,-6.5,30.12,East,82,0.0,2.0,79,0.00,,SKC,0.00,VWS V14.01,2013-02-02 04:58:00,
2013-02-01 23:00:00,-1.6,-6.5,30.12,East,83,0.0,3.0,79,0.00,,SKC,0.00,VWS V14.01,2013-02-02 05:00:00,
2013-02-01 23:05:00,-1.4,-6.3,30.12,NE,45,0.0,2.0,79,0.00,,SKC,0.00,VWS V14.01,2013-02-02 05:05:00,
2013-02-01 23:10:00,-1.4,-6.3,30.12,ENE,61,0.0,0.0,79,0.00,,SKC,0.00,VWS V14.01,2013-02-02 05:10:00,
2013-02-01 23:15:00,-1.4,-6.3,30.13,East,100,1.0,2.0,79,0.00,,SKC,0.00,VWS V14.01,2013-02-02 05:15:00,
2013-02-01 23:20:00,-1.4,-6.3,30.13,East,79,0.0,1.0,79,0.00,,SKC,0.00,VWS V14.01,2013-02-02 05:20:00,
2013-02-01 23:25:00,-1.4,-6.3,30.13,ENE,71,0.0,1.0,79,0.00,,SKC,0.00,VWS V14.01,2013-02-02 05:25:00,
2013-02-01 23:30:00,-1.4,-6.3,30.13,East,79,0.0,1.0,79,0.00,,SKC,0.00,VWS V14.01,2013-02-02 05:30:00,
2013-02-01 23:35:00,-1.4,-6.3,30.13,East,83,0.0,1.0,79,0.00,,SKC,0.00,VWS V14.01,2013-02-02 05:35:00,
2013-02-01 23:40:00,-1.4,-6.3,30.13,East,88,0.0,0.0,79,0.00,,SKC,0.00,VWS V14.01,2013-02-02 05:40:00,
2013-02-01 23:45:00,-1.4,-6.3,30.13,East,86,0.0,1.0,79,0.00,,SKC,0.00,VWS V14.01,2013-02-02 05:45:00,
2013-02-01 23:50:00,-1.4,-6.3,30.13,ENE,78,0.0,1.0,79,0.00,,SKC,0.00,VWS V14.01,2013-02-02 05:50:00,
2013-02-01 23:55:00,-1.2,-6.1,30.13,ENE,62,0.0,2.0,79,0.00,,SKC,0.00,VWS V14.01,2013-02-02 05:55:00,